Time;durP1;ratioP1;P1;durP2;ratioP2;P2;SDS_P1;SDS_P2;PMS_P1;PMS_P2;Temp;Humidity;BMP_temperature;BMP_pressure;BME280_temperature;BME280_humidity;BME280_pressure;Samples;Min_cycle;Max_cycle;Signal;HPM_P1;HPM_P2
2024/03/24 00:04:48;;;;;;;11.77;6.80;;;4.80;99.90;;;;;;5091651;28;20201;-73
2024/03/24 00:11:05;;;;;;;11.60;6.33;;;4.80;99.90;;;;;;5076593;28;20200;-72
2024/03/24 00:13:57;;;;;;;13.80;6.37;;;4.80;99.90;;;;;;5076196;28;20190;-73
2024/03/24 00:16:47;;;;;;;17.07;7.13;;;4.80;99.90;;;;;;5076209;28;20546;-73
2024/03/24 00:19:42;;;;;;;11.37;6.83;;;4.80;99.90;;;;;;5064554;28;20216;-73
2024/03/24 00:22:31;;;;;;;14.20;7.03;;;4.80;99.90;;;;;;5074994;28;20248;-73
2024/03/24 00:25:23;;;;;;;13.77;6.67;;;4.80;99.90;;;;;;5091648;28;20190;-74
2024/03/24 00:28:47;;;;;;;13.53;7.07;;;4.80;99.90;;;;;;5079441;28;20183;-73
2024/03/24 00:31:34;;;;;;;12.87;6.37;;;4.80;99.90;;;;;;5079175;28;20195;-73
2024/03/24 00:34:26;;;;;;;12.87;6.23;;;4.70;99.90;;;;;;5078963;28;20213;-73
2024/03/24 00:37:21;;;;;;;11.03;5.97;;;4.70;99.90;;;;;;5079885;28;20299;-73
2024/03/24 00:40:26;;;;;;;10.30;6.07;;;4.70;99.90;;;;;;5078428;28;20201;-73
2024/03/24 00:47:05;;;;;;;12.83;6.00;;;4.80;99.90;;;;;;5094199;28;20185;-73
2024/03/24 00:49:54;;;;;;;12.17;6.17;;;4.80;99.90;;;;;;5064304;28;20237;-73
2024/03/24 00:52:40;;;;;;;10.77;6.10;;;4.90;99.90;;;;;;5079578;28;20194;-73
2024/03/24 00:55:26;;;;;;;12.30;6.03;;;4.80;99.90;;;;;;5079412;28;20185;-73
2024/03/24 01:01:20;;;;;;;11.03;5.43;;;4.70;99.90;;;;;;5079372;28;20216;-73
2024/03/24 01:04:43;;;;;;;12.40;5.50;;;4.60;99.90;;;;;;5082034;28;20239;-73
2024/03/24 01:07:30;;;;;;;10.60;5.20;;;4.80;99.90;;;;;;5079022;28;20230;-73
2024/03/24 01:10:53;;;;;;;7.30;4.37;;;4.70;99.90;;;;;;5093587;28;20307;-73
2024/03/24 01:13:59;;;;;;;8.70;4.60;;;4.60;99.90;;;;;;5078612;28;20194;-73
2024/03/24 01:16:45;;;;;;;9.03;4.50;;;4.60;99.90;;;;;;5079175;28;20196;-73
2024/03/24 01:19:34;;;;;;;9.77;4.67;;;4.50;99.90;;;;;;5078825;28;20209;-73
2024/03/24 01:22:29;;;;;;;8.43;4.23;;;4.50;99.90;;;;;;5079016;28;20669;-73
2024/03/24 01:32:14;;;;;;;9.63;5.10;;;4.50;99.90;;;;;;5078267;28;20200;-73
2024/03/24 01:35:06;;;;;;;11.07;5.13;;;4.30;99.90;;;;;;5076983;28;20223;-73
2024/03/24 01:38:18;;;;;;;8.93;5.30;;;4.30;99.90;;;;;;5066012;28;20259;-73
2024/03/24 01:41:04;;;;;;;11.03;5.57;;;4.40;99.90;;;;;;5077331;28;20199;-73
2024/03/24 01:43:51;;;;;;;9.90;5.10;;;4.40;99.90;;;;;;5079127;28;20199;-72
2024/03/24 01:46:47;;;;;;;10.93;5.13;;;4.40;99.90;;;;;;5078454;28;20190;-73
2024/03/24 01:49:33;;;;;;;8.83;4.40;;;4.30;99.90;;;;;;5077672;28;20222;-73
2024/03/24 01:55:51;;;;;;;7.47;4.90;;;4.30;99.90;;;;;;5078382;28;20575;-73
2024/03/24 01:58:37;;;;;;;8.23;4.80;;;4.20;99.90;;;;;;5077726;28;20658;-73
2024/03/24 02:01:58;;;;;;;8.37;4.90;;;4.20;99.90;;;;;;5078246;28;20196;-73
2024/03/24 02:04:51;;;;;;;9.47;5.40;;;4.30;99.90;;;;;;5064209;28;20209;-73
2024/03/24 02:07:38;;;;;;;12.80;5.87;;;4.20;99.90;;;;;;5077465;28;20211;-73
2024/03/24 02:10:36;;;;;;;10.97;6.10;;;4.20;99.90;;;;;;5077782;28;20252;-73
2024/03/24 02:13:32;;;;;;;11.73;6.23;;;4.00;99.90;;;;;;5064371;28;20623;-73
2024/03/24 02:16:18;;;;;;;11.17;5.73;;;4.00;99.90;;;;;;5063971;28;20187;-73
2024/03/24 02:19:05;;;;;;;10.43;6.30;;;3.90;99.90;;;;;;5077376;28;20223;-73
2024/03/24 02:21:52;;;;;;;10.77;5.53;;;3.90;99.90;;;;;;5077357;28;20194;-73
2024/03/24 02:24:57;;;;;;;11.47;5.67;;;3.90;99.90;;;;;;5063992;28;20667;-73
2024/03/24 02:27:44;;;;;;;9.83;5.53;;;3.80;99.90;;;;;;5050359;28;20187;-73
2024/03/24 02:30:30;;;;;;;9.40;6.00;;;3.80;99.90;;;;;;5077203;28;20228;-73
2024/03/24 02:33:16;;;;;;;12.03;6.07;;;3.70;99.90;;;;;;5077002;28;20210;-73
2024/03/24 02:36:03;;;;;;;12.53;5.90;;;3.70;99.90;;;;;;5076852;28;20193;-73
2024/03/24 02:38:50;;;;;;;10.93;6.13;;;3.70;99.90;;;;;;5077581;28;20604;-73
2024/03/24 02:41:36;;;;;;;11.77;5.83;;;3.70;99.90;;;;;;5062907;28;20195;-73
2024/03/24 02:44:23;;;;;;;11.70;6.17;;;3.60;99.90;;;;;;5063563;28;20192;-73
2024/03/24 02:47:09;;;;;;;12.60;6.50;;;3.60;99.90;;;;;;5076257;28;20196;-73
2024/03/24 02:49:56;;;;;;;12.40;6.63;;;3.60;99.90;;;;;;5078357;28;20239;-73
2024/03/24 02:52:42;;;;;;;11.00;6.10;;;3.60;99.90;;;;;;5048984;28;20196;-73
2024/03/24 02:55:28;;;;;;;11.50;6.23;;;3.60;99.90;;;;;;5077266;28;20570;-73
2024/03/24 02:58:15;;;;;;;11.10;6.43;;;3.50;99.90;;;;;;5076847;28;20574;-73
2024/03/24 03:01:02;;;;;;;10.33;6.40;;;3.50;99.90;;;;;;5077692;28;20214;-73
2024/03/24 03:03:49;;;;;;;12.20;6.73;;;3.50;99.90;;;;;;5063288;28;20216;-73
2024/03/24 03:06:36;;;;;;;12.83;6.87;;;3.50;99.90;;;;;;5062886;28;20204;-73
2024/03/24 03:09:26;;;;;;;12.03;6.70;;;3.40;99.90;;;;;;5076714;28;20220;-73
2024/03/24 03:12:12;;;;;;;10.40;6.00;;;3.50;99.90;;;;;;5076418;28;20276;-73
2024/03/24 03:14:59;;;;;;;9.73;5.70;;;3.50;99.90;;;;;;5063784;28;20193;-73
2024/03/24 03:17:45;;;;;;;11.27;6.33;;;3.40;99.90;;;;;;5076992;28;20198;-73
2024/03/24 03:20:32;;;;;;;11.50;6.43;;;3.40;99.90;;;;;;5076658;28;20214;-73
2024/03/24 03:23:19;;;;;;;12.00;6.40;;;3.30;99.90;;;;;;5076338;28;20204;-73
2024/03/24 03:26:05;;;;;;;11.57;6.30;;;3.30;99.90;;;;;;5062482;28;20192;-72
2024/03/24 03:28:51;;;;;;;11.20;6.43;;;3.40;99.90;;;;;;5076236;28;20209;-73
2024/03/24 03:31:38;;;;;;;10.33;6.23;;;3.30;99.90;;;;;;5076302;28;20196;-72
2024/03/24 03:34:24;;;;;;;10.37;5.30;;;3.30;99.90;;;;;;5076344;28;20217;-72
2024/03/24 03:37:10;;;;;;;11.30;5.57;;;3.40;99.90;;;;;;5074844;28;20229;-72
2024/03/24 03:39:56;;;;;;;9.67;5.90;;;3.30;99.90;;;;;;5077943;28;20203;-72
2024/03/24 03:42:43;;;;;;;10.83;5.77;;;3.40;99.90;;;;;;5075354;28;20194;-73
2024/03/24 03:45:29;;;;;;;10.53;5.77;;;3.40;99.90;;;;;;5076192;28;20672;-73
2024/03/24 03:48:16;;;;;;;9.40;5.30;;;3.30;99.90;;;;;;5049126;28;20663;-73
2024/03/24 03:51:08;;;;;;;11.07;5.50;;;3.30;99.90;;;;;;5075749;28;20238;-73
2024/03/24 03:53:57;;;;;;;9.50;5.40;;;3.30;99.90;;;;;;5076632;28;20185;-73
2024/03/24 03:56:43;;;;;;;9.00;5.07;;;3.20;99.90;;;;;;5076566;28;20645;-73
2024/03/24 03:59:29;;;;;;;10.30;5.53;;;3.30;99.90;;;;;;5065581;28;20191;-72
2024/03/24 04:02:16;;;;;;;9.60;4.93;;;3.30;99.90;;;;;;5083200;28;20216;-73
2024/03/24 04:05:03;;;;;;;9.70;4.87;;;3.30;99.90;;;;;;5066703;28;20278;-72
2024/03/24 04:07:50;;;;;;;9.13;4.97;;;3.30;99.90;;;;;;5080661;28;20193;-72
2024/03/24 04:10:37;;;;;;;10.50;4.70;;;3.30;99.90;;;;;;5080470;28;20227;-73
2024/03/24 04:13:23;;;;;;;10.10;4.80;;;3.20;99.90;;;;;;5066600;28;20185;-73
2024/03/24 04:16:10;;;;;;;9.07;4.73;;;3.20;99.90;;;;;;5081254;28;20218;-73
2024/03/24 04:18:56;;;;;;;9.40;5.10;;;3.20;99.90;;;;;;5065231;28;20214;-73
2024/03/24 04:21:43;;;;;;;8.03;4.70;;;3.20;99.90;;;;;;5079441;28;20224;-73
2024/03/24 04:24:29;;;;;;;10.43;5.30;;;3.30;99.90;;;;;;5079014;28;20261;-73
2024/03/24 04:27:16;;;;;;;10.30;5.10;;;3.20;99.90;;;;;;5079740;28;20194;-73
2024/03/24 04:30:04;;;;;;;9.50;4.67;;;3.20;99.90;;;;;;5078386;28;20291;-73
2024/03/24 04:32:51;;;;;;;9.53;5.47;;;3.20;99.90;;;;;;5078820;28;20691;-73
2024/03/24 04:35:37;;;;;;;12.07;4.77;;;3.20;99.90;;;;;;5079731;28;20212;-74
2024/03/24 04:38:24;;;;;;;10.20;5.10;;;3.20;99.90;;;;;;5080550;28;20186;-73
2024/03/24 04:41:10;;;;;;;9.47;5.20;;;3.20;99.90;;;;;;5067172;28;20190;-73
2024/03/24 04:43:57;;;;;;;9.90;5.10;;;3.20;99.90;;;;;;5080933;28;20197;-73
2024/03/24 04:46:43;;;;;;;10.33;4.97;;;3.20;99.90;;;;;;5079302;28;20191;-73
2024/03/24 04:49:29;;;;;;;10.30;4.90;;;3.20;99.90;;;;;;5080642;28;20213;-73
2024/03/24 04:52:16;;;;;;;10.57;5.33;;;3.10;99.90;;;;;;5064820;28;20204;-73
2024/03/24 04:55:03;;;;;;;11.00;5.63;;;3.20;99.90;;;;;;5078103;28;20205;-73
2024/03/24 04:57:50;;;;;;;6.83;4.50;;;3.20;99.90;;;;;;5079469;28;20238;-73
2024/03/24 05:00:36;;;;;;;12.00;5.10;;;3.20;99.90;;;;;;5078910;28;20276;-73
2024/03/24 05:03:23;;;;;;;9.70;5.30;;;3.20;99.90;;;;;;5080704;28;20198;-73
2024/03/24 05:06:09;;;;;;;14.97;5.17;;;3.20;99.90;;;;;;5078533;28;20211;-73
2024/03/24 05:08:56;;;;;;;10.57;5.60;;;3.30;99.90;;;;;;5078751;28;20219;-73
2024/03/24 05:11:42;;;;;;;8.73;5.33;;;3.30;99.90;;;;;;5078867;28;20195;-73
2024/03/24 05:14:28;;;;;;;8.50;4.67;;;3.30;99.90;;;;;;5079611;28;20193;-73
2024/03/24 05:17:16;;;;;;;9.63;5.50;;;3.40;99.90;;;;;;5092820;28;20181;-73
2024/03/24 05:20:03;;;;;;;10.90;5.20;;;3.40;99.90;;;;;;5078042;28;20213;-73
2024/03/24 05:22:50;;;;;;;12.87;5.63;;;3.40;99.90;;;;;;5079670;28;20540;-73
2024/03/24 05:25:39;;;;;;;11.63;5.33;;;3.40;99.90;;;;;;5078389;28;20189;-73
2024/03/24 05:28:26;;;;;;;10.70;5.53;;;3.40;99.90;;;;;;5064790;28;20201;-73
2024/03/24 05:31:12;;;;;;;10.90;5.53;;;3.50;99.90;;;;;;5080005;28;20544;-73
2024/03/24 05:33:58;;;;;;;11.40;5.63;;;3.50;99.90;;;;;;5076939;28;20210;-72
2024/03/24 05:36:45;;;;;;;12.93;5.77;;;3.60;99.90;;;;;;5078097;28;20689;-73
2024/03/24 05:39:31;;;;;;;9.87;5.77;;;3.60;99.90;;;;;;5062961;28;20196;-73
2024/03/24 05:42:18;;;;;;;11.87;5.63;;;3.60;99.90;;;;;;5078220;28;20708;-72
2024/03/24 05:45:05;;;;;;;13.77;5.87;;;3.60;99.90;;;;;;5064875;28;20190;-73
2024/03/24 05:47:51;;;;;;;12.83;6.50;;;3.70;99.90;;;;;;5065409;28;20194;-73
2024/03/24 05:50:38;;;;;;;12.70;6.07;;;3.70;99.90;;;;;;5064109;28;20225;-73
2024/03/24 05:53:25;;;;;;;11.23;6.23;;;3.70;99.90;;;;;;5078096;28;20221;-73
2024/03/24 05:56:13;;;;;;;12.40;6.60;;;3.70;99.90;;;;;;5078519;28;20198;-73
2024/03/24 05:58:59;;;;;;;15.60;6.83;;;3.70;99.90;;;;;;5064520;28;20199;-73
2024/03/24 06:01:47;;;;;;;15.60;7.33;;;3.70;99.90;;;;;;5078448;28;20197;-73
2024/03/24 06:04:33;;;;;;;15.03;8.20;;;3.80;99.90;;;;;;5077820;28;20224;-73
2024/03/24 06:07:20;;;;;;;16.43;7.97;;;3.70;99.90;;;;;;5064316;28;20194;-73
2024/03/24 06:10:08;;;;;;;17.07;8.87;;;3.80;99.90;;;;;;5078199;28;20254;-72
2024/03/24 06:12:54;;;;;;;16.93;8.13;;;4.00;99.90;;;;;;5078384;28;20190;-73
2024/03/24 06:15:42;;;;;;;17.57;8.90;;;4.10;99.90;;;;;;5078064;28;20192;-73
2024/03/24 06:18:28;;;;;;;16.07;9.03;;;4.20;99.90;;;;;;5065900;28;20200;-73
2024/03/24 06:21:15;;;;;;;15.83;8.53;;;4.30;99.90;;;;;;5077562;28;20200;-73
2024/03/24 06:24:01;;;;;;;15.07;8.73;;;4.50;99.90;;;;;;5077767;28;20185;-73
2024/03/24 06:26:48;;;;;;;18.17;9.07;;;4.50;99.90;;;;;;5077784;28;20649;-73
2024/03/24 06:29:34;;;;;;;19.20;10.20;;;4.50;99.90;;;;;;5077539;28;20226;-73
2024/03/24 06:32:21;;;;;;;18.20;9.83;;;4.50;99.90;;;;;;5079123;28;20199;-73
2024/03/24 06:35:11;;;;;;;21.17;11.10;;;4.50;99.90;;;;;;5078119;28;20222;-73
2024/03/24 06:37:57;;;;;;;25.37;12.57;;;4.40;99.90;;;;;;5077379;28;20227;-73
2024/03/24 06:40:44;;;;;;;22.73;12.10;;;4.30;99.90;;;;;;5078111;28;20203;-73
2024/03/24 06:43:36;;;;;;;24.73;11.67;;;4.40;99.90;;;;;;5077612;28;20281;-73
2024/03/24 06:46:22;;;;;;;23.30;12.40;;;4.40;99.90;;;;;;5063143;28;20181;-73
2024/03/24 06:49:09;;;;;;;24.03;12.40;;;4.50;99.90;;;;;;5077206;28;20227;-73
2024/03/24 06:51:56;;;;;;;21.00;12.80;;;4.50;99.90;;;;;;5077448;28;20189;-73
2024/03/24 06:54:42;;;;;;;23.93;12.77;;;4.30;99.90;;;;;;5049676;28;20193;-73
2024/03/24 06:57:29;;;;;;;19.03;11.47;;;4.40;99.90;;;;;;5063574;28;20197;-73
2024/03/24 07:00:19;;;;;;;21.97;12.00;;;4.40;99.90;;;;;;5076683;28;20649;-73
2024/03/24 07:03:06;;;;;;;21.27;12.07;;;4.40;99.90;;;;;;5077184;28;20207;-73
2024/03/24 07:05:52;;;;;;;19.93;11.70;;;4.50;99.90;;;;;;5077227;28;20196;-73
2024/03/24 07:08:40;;;;;;;21.77;11.80;;;4.50;99.90;;;;;;5076637;28;20670;-73
2024/03/24 07:11:27;;;;;;;21.07;10.63;;;4.60;99.90;;;;;;5077362;28;20563;-73
2024/03/24 07:14:13;;;;;;;20.93;11.30;;;4.60;99.90;;;;;;5063719;28;20201;-73
2024/03/24 07:17:00;;;;;;;17.87;10.50;;;4.60;99.90;;;;;;5063672;28;20186;-73
2024/03/24 07:19:46;;;;;;;21.13;10.60;;;4.50;99.90;;;;;;5076946;28;20215;-74
2024/03/24 07:22:32;;;;;;;19.27;11.17;;;4.60;99.90;;;;;;5076309;28;20192;-73
2024/03/24 07:25:19;;;;;;;20.10;10.80;;;4.50;99.90;;;;;;5075845;28;20194;-73
2024/03/24 07:28:05;;;;;;;16.47;9.83;;;4.60;99.90;;;;;;5076292;28;20195;-73
2024/03/24 07:30:51;;;;;;;16.40;9.77;;;4.50;99.90;;;;;;5076147;28;20224;-73
2024/03/24 07:33:38;;;;;;;19.63;10.37;;;4.40;99.90;;;;;;5076542;28;20198;-73
2024/03/24 07:36:24;;;;;;;18.30;10.10;;;4.50;99.90;;;;;;5076108;28;20599;-73
2024/03/24 07:39:10;;;;;;;17.27;10.40;;;4.50;99.90;;;;;;5076092;28;20493;-73
2024/03/24 07:41:57;;;;;;;18.10;9.93;;;4.60;99.90;;;;;;5062880;28;20222;-73
2024/03/24 07:44:43;;;;;;;20.60;10.93;;;4.60;99.90;;;;;;5076618;28;20189;-73
2024/03/24 07:47:30;;;;;;;18.43;10.87;;;4.60;99.90;;;;;;5076022;28;20194;-73
2024/03/24 07:50:17;;;;;;;21.00;11.43;;;4.60;99.90;;;;;;5075163;28;20226;-73
2024/03/24 07:53:05;;;;;;;21.87;11.40;;;4.50;99.90;;;;;;5062668;28;20192;-74
2024/03/24 07:55:51;;;;;;;22.57;11.27;;;4.60;99.90;;;;;;5076025;28;20196;-73
2024/03/24 07:58:38;;;;;;;16.73;10.73;;;4.60;99.90;;;;;;5075976;28;20195;-73
2024/03/24 08:01:24;;;;;;;22.27;11.40;;;4.60;99.90;;;;;;5075287;28;20190;-73
2024/03/24 08:04:11;;;;;;;20.23;11.57;;;4.70;99.90;;;;;;5061955;28;20223;-73
2024/03/24 08:06:57;;;;;;;21.77;11.50;;;4.70;99.90;;;;;;5075672;28;20190;-73
2024/03/24 08:09:43;;;;;;;23.20;12.17;;;4.70;99.90;;;;;;5075783;28;20269;-73
2024/03/24 08:12:30;;;;;;;20.17;12.10;;;4.80;99.90;;;;;;5077012;28;20204;-73
2024/03/24 08:15:16;;;;;;;19.83;11.63;;;4.70;99.90;;;;;;5076011;28;20198;-73
2024/03/24 08:18:03;;;;;;;19.67;11.23;;;4.60;99.90;;;;;;5075724;28;20188;-73
2024/03/24 08:20:50;;;;;;;22.67;11.63;;;4.60;99.90;;;;;;5075864;28;20707;-73
2024/03/24 08:23:38;;;;;;;20.80;12.03;;;4.60;99.90;;;;;;5076373;28;20194;-73
2024/03/24 08:26:24;;;;;;;22.90;12.43;;;4.50;99.90;;;;;;5062409;28;20778;-74
2024/03/24 08:29:11;;;;;;;23.97;12.40;;;4.50;99.90;;;;;;5076124;28;20240;-73
2024/03/24 08:31:57;;;;;;;22.40;12.83;;;4.50;99.90;;;;;;5074825;28;20185;-73
2024/03/24 08:34:44;;;;;;;23.90;13.23;;;4.50;99.90;;;;;;5075623;28;20216;-73
2024/03/24 08:37:30;;;;;;;22.83;13.50;;;4.40;99.90;;;;;;5061859;28;20317;-73
2024/03/24 08:40:17;;;;;;;24.93;12.93;;;4.40;99.90;;;;;;5075642;28;20212;-73
2024/03/24 08:43:03;;;;;;;22.47;12.83;;;4.50;99.90;;;;;;5075014;28;20274;-74
2024/03/24 08:45:50;;;;;;;20.53;11.97;;;4.40;99.90;;;;;;5076547;28;20190;-74
2024/03/24 08:48:36;;;;;;;21.27;11.80;;;4.50;99.90;;;;;;5079446;28;20672;-74
2024/03/24 08:51:23;;;;;;;19.83;11.57;;;4.60;99.90;;;;;;5078981;28;20191;-74
2024/03/24 08:54:09;;;;;;;20.73;11.23;;;4.60;99.90;;;;;;5078866;28;20191;-73
2024/03/24 08:56:56;;;;;;;22.03;11.53;;;4.70;99.90;;;;;;5078485;28;20210;-73
2024/03/24 08:59:42;;;;;;;21.10;12.47;;;4.80;99.90;;;;;;5079085;28;20197;-73
2024/03/24 09:02:28;;;;;;;20.63;12.37;;;4.80;99.90;;;;;;5065588;28;20198;-73
2024/03/24 09:05:15;;;;;;;20.90;12.57;;;4.90;99.90;;;;;;5079874;28;20731;-74
2024/03/24 09:08:01;;;;;;;21.13;12.47;;;5.00;99.90;;;;;;5078963;28;20231;-73
2024/03/24 09:10:47;;;;;;;22.13;12.90;;;5.00;99.90;;;;;;5079224;28;20222;-73
2024/03/24 09:13:35;;;;;;;21.83;11.93;;;5.10;99.90;;;;;;5078951;28;20186;-73
2024/03/24 09:16:23;;;;;;;22.43;12.80;;;5.20;99.90;;;;;;5078568;28;20268;-73
2024/03/24 09:19:09;;;;;;;21.73;12.37;;;5.40;99.90;;;;;;5078238;28;20465;-74
2024/03/24 09:21:56;;;;;;;20.50;12.00;;;5.40;99.90;;;;;;5077820;28;20670;-73
2024/03/24 09:24:42;;;;;;;21.93;12.47;;;5.50;99.90;;;;;;5078343;28;20192;-73
2024/03/24 09:27:28;;;;;;;22.60;13.13;;;5.40;99.90;;;;;;5078394;28;20194;-73
2024/03/24 09:30:15;;;;;;;19.53;12.27;;;5.40;99.90;;;;;;5077623;28;20569;-73
2024/03/24 09:33:01;;;;;;;21.37;11.70;;;5.50;99.90;;;;;;5065553;28;20190;-73
2024/03/24 09:35:48;;;;;;;20.33;11.70;;;5.40;99.90;;;;;;5078522;28;20574;-73
2024/03/24 09:38:35;;;;;;;18.07;11.13;;;5.40;99.90;;;;;;5078978;28;20198;-74
2024/03/24 09:41:27;;;;;;;17.87;11.00;;;5.50;99.90;;;;;;5078808;28;20205;-72
2024/03/24 09:44:15;;;;;;;16.20;9.63;;;5.60;99.90;;;;;;5077615;28;20326;-74
2024/03/24 09:47:01;;;;;;;18.33;10.10;;;5.50;99.90;;;;;;5065459;28;20556;-73
2024/03/24 09:49:50;;;;;;;13.70;8.80;;;5.60;99.90;;;;;;5077971;28;20716;-73
2024/03/24 09:52:36;;;;;;;23.30;9.20;;;5.60;99.90;;;;;;5078329;28;20340;-73
2024/03/24 09:55:29;;;;;;;15.50;8.90;;;5.80;99.90;;;;;;5079575;28;20199;-73
2024/03/24 09:58:20;;;;;;;13.50;8.33;;;6.00;99.90;;;;;;5077617;28;20196;-73
2024/03/24 10:01:07;;;;;;;14.93;8.53;;;6.00;99.90;;;;;;5078219;28;20517;-73
2024/03/24 10:03:54;;;;;;;12.97;8.90;;;6.10;99.90;;;;;;5077626;28;20206;-73
2024/03/24 10:06:40;;;;;;;15.20;9.43;;;6.20;99.90;;;;;;5063898;28;20198;-74
2024/03/24 10:09:27;;;;;;;11.40;7.50;;;6.50;99.90;;;;;;5078159;28;20216;-74
2024/03/24 10:12:14;;;;;;;12.87;8.27;;;7.10;99.90;;;;;;5078119;28;20600;-73
2024/03/24 10:15:22;;;;;;;10.23;7.57;;;7.20;99.90;;;;;;5078040;28;20194;-73
2024/03/24 10:18:09;;;;;;;10.20;7.43;;;7.00;99.90;;;;;;5078459;28;20198;-74
2024/03/24 10:20:56;;;;;;;13.37;7.57;;;6.90;99.90;;;;;;5078111;28;20581;-73
2024/03/24 10:23:43;;;;;;;14.07;8.20;;;6.60;99.90;;;;;;5076111;28;20573;-73
2024/03/24 10:26:32;;;;;;;10.90;6.13;;;6.70;99.90;;;;;;5076772;28;20220;-73
2024/03/24 10:29:21;;;;;;;13.73;6.10;;;6.60;99.90;;;;;;5076554;28;20215;-74
2024/03/24 10:32:11;;;;;;;8.73;6.10;;;6.50;99.90;;;;;;5077745;28;20198;-73
2024/03/24 10:35:00;;;;;;;11.83;6.17;;;6.60;99.90;;;;;;5076738;28;20230;-73
2024/03/24 10:37:47;;;;;;;12.10;5.67;;;6.70;99.90;;;;;;5077309;28;20237;-73
2024/03/24 10:40:36;;;;;;;9.23;5.70;;;6.80;99.90;;;;;;5076919;28;20196;-73
2024/03/24 10:43:23;;;;;;;8.53;5.33;;;7.10;99.90;;;;;;5063123;28;20237;-74
2024/03/24 10:46:11;;;;;;;9.23;5.30;;;7.70;99.90;;;;;;5076973;28;20196;-73
2024/03/24 10:48:59;;;;;;;8.87;4.90;;;8.20;99.90;;;;;;5077192;28;20209;-73
2024/03/24 10:51:48;;;;;;;8.63;4.60;;;9.20;99.90;;;;;;5075925;28;20190;-73
2024/03/24 10:54:36;;;;;;;7.50;4.30;;;10.30;99.90;;;;;;5077452;28;20193;-73
2024/03/24 10:57:26;;;;;;;5.93;4.07;;;10.90;99.90;;;;;;5078265;28;20189;-73
2024/03/24 11:00:13;;;;;;;8.60;4.37;;;10.90;99.90;;;;;;5075993;28;20303;-73
2024/03/24 11:03:00;;;;;;;6.13;4.20;;;10.80;99.90;;;;;;5077180;28;20189;-73
2024/03/24 11:05:52;;;;;;;7.60;4.10;;;10.50;99.90;;;;;;5077001;28;20719;-72
2024/03/24 11:08:38;;;;;;;5.43;3.87;;;10.20;99.90;;;;;;5075715;28;20242;-73
2024/03/24 11:11:26;;;;;;;6.07;4.10;;;9.50;99.90;;;;;;5077067;28;20662;-73
2024/03/24 11:14:13;;;;;;;9.97;4.27;;;9.30;99.90;;;;;;5077613;28;20197;-73
2024/03/24 11:17:02;;;;;;;6.03;4.10;;;9.00;99.90;;;;;;5077264;28;20609;-73
2024/03/24 11:19:49;;;;;;;7.47;3.80;;;9.00;99.90;;;;;;5076741;28;20210;-73
2024/03/24 11:22:42;;;;;;;7.13;4.20;;;8.80;99.90;;;;;;5077275;28;20186;-73
2024/03/24 11:25:35;;;;;;;8.20;4.43;;;8.80;99.90;;;;;;5076839;28;20203;-73
2024/03/24 11:28:43;;;;;;;7.23;4.07;;;8.80;99.90;;;;;;5076148;28;20188;-73
2024/03/24 11:31:35;;;;;;;7.17;4.40;;;8.70;99.90;;;;;;5062334;28;20608;-73
2024/03/24 11:34:21;;;;;;;6.47;4.20;;;8.70;99.90;;;;;;5077111;28;20582;-73
2024/03/24 11:37:08;;;;;;;8.33;4.53;;;8.80;99.90;;;;;;5077267;28;20233;-73
2024/03/24 11:39:55;;;;;;;6.50;4.27;;;9.00;99.90;;;;;;5075465;28;20185;-73
2024/03/24 11:42:41;;;;;;;7.37;4.40;;;9.10;99.90;;;;;;5089759;28;20197;-74
2024/03/24 11:45:29;;;;;;;8.77;4.50;;;8.90;99.90;;;;;;5077917;28;20514;-73
2024/03/24 11:48:26;;;;;;;9.40;4.50;;;8.80;99.90;;;;;;5062703;28;20198;-73
2024/03/24 11:51:13;;;;;;;8.07;4.43;;;9.00;99.90;;;;;;5076538;28;20222;-74
2024/03/24 11:54:00;;;;;;;5.03;3.73;;;9.60;99.90;;;;;;5075660;28;20193;-73
2024/03/24 11:56:47;;;;;;;8.33;3.97;;;11.40;99.90;;;;;;5075368;28;20198;-74
2024/03/24 11:59:34;;;;;;;6.57;3.60;;;13.70;99.90;;;;;;5076392;28;20193;-74
2024/03/24 12:02:21;;;;;;;5.17;3.20;;;15.00;99.90;;;;;;5076444;28;20185;-73
2024/03/24 12:05:07;;;;;;;6.77;3.57;;;14.30;99.90;;;;;;5063618;28;20337;-73
2024/03/24 12:07:54;;;;;;;7.17;3.67;;;12.90;99.90;;;;;;5062558;28;20186;-73
2024/03/24 12:10:40;;;;;;;5.83;3.40;;;11.80;99.90;;;;;;5076926;28;20693;-74
2024/03/24 12:13:27;;;;;;;8.47;3.33;;;11.40;99.90;;;;;;5076359;28;20559;-73
2024/03/24 12:16:15;;;;;;;6.53;3.30;;;11.40;99.90;;;;;;5076373;28;20190;-73
2024/03/24 12:19:01;;;;;;;7.80;3.43;;;11.30;99.90;;;;;;5063653;28;20272;-73
2024/03/24 12:21:48;;;;;;;8.60;3.70;;;11.10;99.90;;;;;;5077270;28;20200;-73
2024/03/24 12:24:34;;;;;;;7.37;3.50;;;10.70;99.90;;;;;;5066427;28;20359;-73
2024/03/24 12:27:21;;;;;;;5.33;3.37;;;11.00;99.90;;;;;;5078789;28;20208;-74
2024/03/24 12:30:07;;;;;;;6.00;3.60;;;11.30;99.90;;;;;;5094044;28;20221;-74
2024/03/24 12:32:56;;;;;;;5.73;3.33;;;11.40;99.90;;;;;;5078687;28;20189;-74
2024/03/24 12:35:42;;;;;;;5.97;3.40;;;10.70;99.90;;;;;;5079240;28;20367;-73
2024/03/24 12:38:30;;;;;;;6.43;3.23;;;10.70;99.90;;;;;;5065618;28;20208;-73
2024/03/24 12:41:23;;;;;;;5.90;3.33;;;10.60;99.90;;;;;;5079420;28;20632;-74
2024/03/24 12:44:12;;;;;;;6.30;3.50;;;11.10;99.90;;;;;;5066426;28;20197;-73
2024/03/24 12:47:08;;;;;;;5.93;3.63;;;11.50;99.90;;;;;;5080317;28;20190;-74
2024/03/24 12:49:54;;;;;;;5.27;3.30;;;12.20;99.90;;;;;;5079601;28;20232;-73
2024/03/24 12:52:41;;;;;;;5.57;3.27;;;11.80;99.90;;;;;;5065847;28;20200;-73
2024/03/24 12:55:30;;;;;;;5.97;3.27;;;11.50;99.90;;;;;;5078927;28;20196;-73
2024/03/24 12:58:17;;;;;;;3.97;3.23;;;11.30;99.90;;;;;;5066809;28;20368;-73
2024/03/24 13:01:04;;;;;;;6.47;3.37;;;11.40;99.90;;;;;;5078487;28;20238;-74
2024/03/24 13:03:51;;;;;;;5.27;3.23;;;10.80;99.90;;;;;;5065380;28;20212;-73
2024/03/24 13:06:38;;;;;;;5.30;3.50;;;10.30;99.90;;;;;;5066740;28;20198;-73
2024/03/24 13:09:28;;;;;;;5.97;3.50;;;10.60;99.90;;;;;;5065933;28;20190;-73
2024/03/24 13:12:15;;;;;;;6.40;3.23;;;12.00;99.90;;;;;;5093574;28;20190;-73
2024/03/24 13:15:01;;;;;;;4.73;2.87;;;12.80;99.90;;;;;;5078738;28;20197;-74
2024/03/24 13:17:51;;;;;;;4.53;2.30;;;13.70;99.90;;;;;;5077866;28;20199;-73
2024/03/24 13:20:43;;;;;;;4.10;2.73;;;13.80;97.30;;;;;;5078800;28;20211;-74
2024/03/24 13:23:30;;;;;;;8.03;3.00;;;13.60;96.50;;;;;;5077793;28;20182;-73
2024/03/24 13:26:25;;;;;;;5.27;2.90;;;13.90;97.50;;;;;;5079576;28;20194;-73
2024/03/24 13:29:12;;;;;;;4.30;2.80;;;14.60;96.60;;;;;;5064906;28;20193;-74
2024/03/24 13:31:58;;;;;;;5.50;2.60;;;14.20;94.80;;;;;;5077065;28;20204;-73
2024/03/24 13:34:45;;;;;;;4.47;2.60;;;14.70;93.90;;;;;;5078197;28;20207;-74
2024/03/24 13:37:56;;;;;;;5.07;2.90;;;14.50;92.60;;;;;;5078287;28;20685;-74
2024/03/24 13:40:54;;;;;;;4.77;2.70;;;13.60;93.30;;;;;;4997905;28;20204;-74
2024/03/24 13:44:14;;;;;;;8.93;3.10;;;12.70;93.80;;;;;;4998321;28;20411;-73
2024/03/24 13:47:28;;;;;;;5.17;2.80;;;11.70;96.20;;;;;;4997294;28;20200;-73
2024/03/24 13:50:15;;;;;;;5.20;2.70;;;11.10;98.00;;;;;;4996525;28;20251;-73
2024/03/24 13:53:01;;;;;;;6.20;3.27;;;10.70;99.40;;;;;;4997739;28;20192;-74
2024/03/24 13:55:48;;;;;;;7.17;3.27;;;10.50;99.90;;;;;;4997914;28;20215;-74
2024/03/24 13:58:35;;;;;;;6.97;3.13;;;9.80;99.90;;;;;;4983991;28;20689;-73
2024/03/24 14:01:21;;;;;;;5.47;3.10;;;9.60;99.90;;;;;;4997552;28;20204;-73
2024/03/24 14:04:07;;;;;;;4.03;2.57;;;9.30;99.90;;;;;;4996707;28;20331;-73
2024/03/24 14:06:54;;;;;;;4.90;2.60;;;8.80;99.90;;;;;;4996312;28;20199;-74
2024/03/24 14:09:42;;;;;;;4.30;2.37;;;8.50;99.90;;;;;;4997213;28;20226;-74
2024/03/24 14:12:35;;;;;;;4.80;2.73;;;8.70;99.90;;;;;;4997266;28;20192;-74
2024/03/24 14:15:57;;;;;;;4.93;2.60;;;8.90;99.90;;;;;;4997605;28;20189;-74
2024/03/24 14:19:11;;;;;;;4.83;2.70;;;8.90;99.90;;;;;;5068431;28;20231;-74
2024/03/24 14:22:06;;;;;;;4.87;2.60;;;8.80;99.90;;;;;;5062124;28;20207;-74
2024/03/24 14:25:08;;;;;;;6.27;3.03;;;8.70;99.90;;;;;;5077181;28;20211;-74
2024/03/24 14:27:54;;;;;;;6.10;2.70;;;8.70;99.90;;;;;;5064920;28;20188;-74
2024/03/24 14:30:41;;;;;;;6.47;2.77;;;8.80;99.90;;;;;;5077808;28;20262;-72
2024/03/24 14:33:31;;;;;;;4.20;2.60;;;8.70;99.90;;;;;;5077095;28;20190;-73
2024/03/24 14:36:54;;;;;;;4.23;2.50;;;8.70;99.90;;;;;;5077461;28;20243;-72
2024/03/24 14:40:04;;;;;;;5.47;3.17;;;8.50;99.90;;;;;;5077021;28;20200;-72
2024/03/24 14:43:13;;;;;;;4.57;2.70;;;8.20;99.90;;;;;;5076506;28;20207;-73
2024/03/24 14:46:21;;;;;;;3.90;2.87;;;8.10;99.90;;;;;;5077222;28;20560;-73
2024/03/24 14:49:14;;;;;;;6.27;3.00;;;8.10;99.90;;;;;;5076001;28;20211;-73
2024/03/24 14:52:01;;;;;;;6.93;3.40;;;8.10;99.90;;;;;;5062831;28;20196;-73
2024/03/24 14:54:47;;;;;;;5.63;3.20;;;8.20;99.90;;;;;;5076264;28;20204;-73
2024/03/24 14:57:33;;;;;;;5.47;3.10;;;8.30;99.90;;;;;;5064583;28;20193;-73
2024/03/24 15:00:21;;;;;;;6.73;3.00;;;8.50;99.90;;;;;;5077459;28;20197;-73
2024/03/24 15:03:07;;;;;;;5.20;3.07;;;8.60;99.90;;;;;;5077694;28;20215;-73
2024/03/24 15:05:56;;;;;;;6.10;2.93;;;8.70;99.90;;;;;;5076555;28;20256;-73